Time;durP1;ratioP1;P1;durP2;ratioP2;P2;SDS_P1;SDS_P2;PMS_P1;PMS_P2;Temp;Humidity;BMP_temperature;BMP_pressure;BME280_temperature;BME280_humidity;BME280_pressure;Samples;Min_cycle;Max_cycle;Signal;HPM_P1;HPM_P2
2022/04/20 00:01:42;;;;;;;;;;;7.20;92.60;;;;;;4928528;28;20493;-63
2022/04/20 00:04:11;;;;;;;;;;;7.20;93.60;;;;;;4929664;28;19922;-64
2022/04/20 00:06:37;;;;;;;;;;;7.10;93.90;;;;;;4932583;28;20082;-63
2022/04/20 00:09:04;;;;;;;;;;;7.10;94.20;;;;;;4927746;28;19922;-64
2022/04/20 00:11:31;;;;;;;;;;;7.00;94.80;;;;;;4929527;28;20151;-63
2022/04/20 00:13:58;;;;;;;;;;;7.00;95.90;;;;;;4932783;28;20559;-64
2022/04/20 00:16:25;;;;;;;;;;;6.90;96.50;;;;;;4932749;28;20337;-63
2022/04/20 00:18:52;;;;;;;;;;;6.90;96.70;;;;;;4926735;28;20082;-64
2022/04/20 00:21:25;;;;;;;;;;;6.80;97.80;;;;;;4931053;28;19922;-63
2022/04/20 00:23:52;;;;;;;;;;;6.80;98.30;;;;;;4928725;28;20039;-64
2022/04/20 00:26:19;;;;;;;;;;;6.80;98.90;;;;;;4925256;28;20085;-63
2022/04/20 00:28:47;;;;;;;;;;;6.80;99.20;;;;;;4929099;28;20431;-64
2022/04/20 00:31:14;;;;;;;;;;;6.70;99.90;;;;;;4928160;28;19936;-64
2022/04/20 00:33:41;;;;;;;;;;;6.70;99.90;;;;;;4930326;28;19937;-64
2022/04/20 00:36:09;;;;;;;;;;;6.60;99.90;;;;;;4932361;28;20419;-64
2022/04/20 00:38:36;;;;;;;;;;;6.50;99.90;;;;;;4923268;28;20052;-64
2022/04/20 00:41:03;;;;;;;;;;;6.50;99.90;;;;;;4926912;28;20485;-64
2022/04/20 00:43:30;;;;;;;;;;;6.40;99.90;;;;;;4929198;28;20447;-64
2022/04/20 00:45:59;;;;;;;;;;;6.40;99.90;;;;;;4927095;28;20665;-64
2022/04/20 00:48:27;;;;;;;;;;;6.40;99.90;;;;;;4931228;28;20388;-64
2022/04/20 00:50:55;;;;;;;;;;;6.30;99.90;;;;;;4920818;28;19922;-64
2022/04/20 00:53:22;;;;;;;;;;;6.30;99.90;;;;;;4927860;28;20181;-64
2022/04/20 00:55:51;;;;;;;;;;;6.30;99.90;;;;;;4927415;28;20762;-64
2022/04/20 00:58:19;;;;;;;;;;;6.20;99.90;;;;;;4928958;28;20001;-64
2022/04/20 01:00:46;;;;;;;;;;;6.20;99.90;;;;;;4928836;28;20632;-65
2022/04/20 01:03:12;;;;;;;;;;;6.20;99.90;;;;;;4927464;28;20450;-64
2022/04/20 01:05:59;;;;;;;;;;;6.10;99.90;;;;;;4926943;28;20088;-64
2022/04/20 01:08:52;;;;;;;;;;;6.10;99.90;;;;;;4928960;28;19992;-64
2022/04/20 01:11:37;;;;;;;;;;;6.10;99.90;;;;;;4929002;28;20142;-63
2022/04/20 01:14:25;;;;;;;;;;;6.00;99.90;;;;;;4955912;28;20878;-64
2022/04/20 01:16:57;;;;;;;;;;;5.90;99.90;;;;;;4931502;28;20103;-64
2022/04/20 01:19:44;;;;;;;;;;;5.80;99.90;;;;;;4945678;28;20442;-64
2022/04/20 01:22:34;;;;;;;;;;;5.70;99.90;;;;;;4947003;28;19921;-64
2022/04/20 01:25:27;;;;;;;;;;;5.60;99.90;;;;;;4948161;28;20099;-63
2022/04/20 01:28:07;;;;;;;;;;;5.60;99.90;;;;;;4958167;28;19925;-64
2022/04/20 01:30:45;;;;;;;;;;;5.50;99.90;;;;;;4927364;28;19926;-63
2022/04/20 01:33:38;;;;;;;;;;;5.50;99.90;;;;;;4957680;28;20126;-63
2022/04/20 01:36:05;;;;;;;;;;;5.50;99.90;;;;;;4926720;28;19926;-63
2022/04/20 01:38:32;;;;;;;;;;;5.50;99.90;;;;;;4927793;28;20215;-64
2022/04/20 01:40:59;;;;;;;;;;;5.40;99.90;;;;;;4925559;28;20032;-63
2022/04/20 01:43:26;;;;;;;;;;;5.40;99.90;;;;;;4926720;28;19922;-63
2022/04/20 01:46:08;;;;;;;;;;;5.30;99.90;;;;;;4928736;28;20696;-63
2022/04/20 01:48:59;;;;;;;;;;;5.30;99.90;;;;;;4924349;28;19929;-63
2022/04/20 01:51:51;;;;;;;;;;;5.20;99.90;;;;;;4942232;28;20086;-63
2022/04/20 01:54:37;;;;;;;;;;;5.20;99.90;;;;;;4923423;28;20521;-63
2022/04/20 01:57:41;;;;;;;;;;;5.10;99.90;;;;;;4945657;28;21002;-63
2022/04/20 02:00:27;;;;;;;;;;;5.10;99.90;;;;;;4942072;28;19928;-63
2022/04/20 02:03:17;;;;;;;;;;;5.10;99.90;;;;;;4929966;28;20743;-63
2022/04/20 02:05:51;;;;;;;;;;;5.00;99.90;;;;;;4925202;28;20201;-63
2022/04/20 02:08:29;;;;;;;;;;;5.00;99.90;;;;;;4913080;28;20462;-63
2022/04/20 02:11:13;;;;;;;;;;;4.90;99.90;;;;;;4927269;28;20044;-63
2022/04/20 02:13:39;;;;;;;;;;;4.90;99.90;;;;;;4929264;28;20685;-63
2022/04/20 02:16:07;;;;;;;;;;;4.90;99.90;;;;;;4923211;28;20859;-64
2022/04/20 02:19:03;;;;;;;;;;;4.80;99.90;;;;;;4935691;28;20553;-64
2022/04/20 02:21:39;;;;;;;;;;;4.80;99.90;;;;;;4924179;28;19932;-64
2022/04/20 02:24:06;;;;;;;;;;;4.80;99.90;;;;;;4930109;28;20090;-63
2022/04/20 02:26:33;;;;;;;;;;;4.70;99.90;;;;;;4930884;28;20226;-64
2022/04/20 02:29:00;;;;;;;;;;;4.70;99.90;;;;;;4926429;28;20459;-64
2022/04/20 02:31:27;;;;;;;;;;;4.70;99.90;;;;;;4947210;28;19921;-64
2022/04/20 02:33:54;;;;;;;;;;;4.70;99.90;;;;;;4931747;28;19921;-64
2022/04/20 02:36:22;;;;;;;;;;;4.70;99.90;;;;;;4963189;28;19948;-64
2022/04/20 02:38:48;;;;;;;;;;;4.60;99.90;;;;;;4926985;28;20040;-64
2022/04/20 02:41:15;;;;;;;;;;;4.60;99.90;;;;;;4930906;28;19937;-64
2022/04/20 02:43:42;;;;;;;;;;;4.60;99.90;;;;;;4928588;28;20467;-64
2022/04/20 02:46:09;;;;;;;;;;;4.60;99.90;;;;;;4930389;28;20219;-64
2022/04/20 02:48:36;;;;;;;;;;;4.50;99.90;;;;;;4928041;28;20203;-64
2022/04/20 02:51:03;;;;;;;;;;;4.50;99.90;;;;;;4931673;28;19937;-64
2022/04/20 02:53:30;;;;;;;;;;;4.40;99.90;;;;;;4925719;28;20028;-64
2022/04/20 02:55:57;;;;;;;;;;;4.40;99.90;;;;;;4928151;28;19988;-64
2022/04/20 02:58:24;;;;;;;;;;;4.40;99.90;;;;;;4926858;28;20036;-64
2022/04/20 03:00:56;;;;;;;;;;;4.40;99.90;;;;;;4926868;28;20447;-64
2022/04/20 03:03:27;;;;;;;;;;;4.30;99.90;;;;;;4923207;28;19932;-64
2022/04/20 03:06:00;;;;;;;;;;;4.30;99.90;;;;;;4928142;28;20095;-64
2022/04/20 03:08:28;;;;;;;;;;;4.30;99.90;;;;;;4926655;28;19929;-64
2022/04/20 03:10:56;;;;;;;;;;;4.20;99.90;;;;;;4965192;28;20313;-64
2022/04/20 03:13:26;;;;;;;;;;;4.20;99.90;;;;;;4959030;28;20439;-64
2022/04/20 03:15:52;;;;;;;;;;;4.20;99.90;;;;;;4960390;28;20265;-64
2022/04/20 03:18:20;;;;;;;;;;;4.20;99.90;;;;;;4931331;28;19921;-64
2022/04/20 03:20:49;;;;;;;;;;;4.20;99.90;;;;;;4927225;28;19932;-64
2022/04/20 03:23:16;;;;;;;;;;;4.20;99.90;;;;;;4927763;28;20290;-65
2022/04/20 03:25:48;;;;;;;;;;;4.20;99.90;;;;;;4929395;28;20086;-64
2022/04/20 03:28:38;;;;;;;;;;;4.20;99.90;;;;;;4929967;28;19922;-64
2022/04/20 03:31:05;;;;;;;;;;;4.10;99.90;;;;;;4945700;28;20216;-64
2022/04/20 03:33:32;;;;;;;;;;;4.10;99.90;;;;;;4927723;28;20435;-64
2022/04/20 03:35:59;;;;;;;;;;;4.00;99.90;;;;;;4931417;28;20122;-64
2022/04/20 03:38:27;;;;;;;;;;;4.00;99.90;;;;;;4928160;28;20240;-64
2022/04/20 03:40:54;;;;;;;;;;;4.00;99.90;;;;;;4928860;28;20443;-65
2022/04/20 03:43:21;;;;;;;;;;;4.00;99.90;;;;;;4927226;28;20052;-64
2022/04/20 03:45:50;;;;;;;;;;;3.90;99.90;;;;;;4931199;28;19921;-63
2022/04/20 03:48:17;;;;;;;;;;;3.90;99.90;;;;;;4930421;28;19925;-64
2022/04/20 03:50:44;;;;;;;;;;;3.80;99.90;;;;;;4928065;28;20226;-64
2022/04/20 03:53:11;;;;;;;;;;;3.80;99.90;;;;;;4928488;28;19930;-64
2022/04/20 03:55:38;;;;;;;;;;;3.80;99.90;;;;;;4926033;28;20497;-64
2022/04/20 03:58:05;;;;;;;;;;;3.70;99.90;;;;;;4928843;28;20211;-64
2022/04/20 04:00:33;;;;;;;;;;;3.70;99.90;;;;;;4943831;28;20466;-64
2022/04/20 04:03:00;;;;;;;;;;;3.70;99.90;;;;;;4943200;28;20277;-64
2022/04/20 04:05:33;;;;;;;;;;;3.70;99.90;;;;;;4960974;28;20544;-64
2022/04/20 04:08:07;;;;;;;;;;;3.60;99.90;;;;;;4963184;28;19921;-63
2022/04/20 04:10:35;;;;;;;;;;;3.60;99.90;;;;;;4931243;28;20662;-64
2022/04/20 04:13:04;;;;;;;;;;;3.60;99.90;;;;;;4940664;28;20544;-63
2022/04/20 04:15:31;;;;;;;;;;;3.60;99.90;;;;;;4929936;28;20040;-64
2022/04/20 04:18:02;;;;;;;;;;;3.50;99.90;;;;;;4930489;28;19922;-63
2022/04/20 04:20:37;;;;;;;;;;;3.50;99.90;;;;;;4928316;28;19921;-63
2022/04/20 04:23:06;;;;;;;;;;;3.50;99.90;;;;;;4924030;28;20423;-64
2022/04/20 04:25:39;;;;;;;;;;;3.50;99.90;;;;;;4929343;28;19933;-64
2022/04/20 04:28:08;;;;;;;;;;;3.50;99.90;;;;;;4928220;28;19922;-64
2022/04/20 04:30:39;;;;;;;;;;;3.50;99.90;;;;;;4929207;28;20335;-64
2022/04/20 04:33:08;;;;;;;;;;;3.50;99.90;;;;;;4927098;28;20118;-64
2022/04/20 04:35:35;;;;;;;;;;;3.50;99.90;;;;;;4924324;28;20280;-63
2022/04/20 04:38:07;;;;;;;;;;;3.50;99.90;;;;;;4949109;28;19921;-64
2022/04/20 04:40:34;;;;;;;;;;;3.50;99.90;;;;;;4925110;28;20177;-63
2022/04/20 04:43:03;;;;;;;;;;;3.50;99.90;;;;;;4927304;28;19949;-64
2022/04/20 04:48:37;;;;;;;;;;;3.60;99.90;;;;;;4927023;28;19922;-63
2022/04/20 04:51:06;;;;;;;;;;;3.60;99.90;;;;;;4927470;28;19921;-63
2022/04/20 04:53:33;;;;;;;;;;;3.60;99.90;;;;;;4924882;28;20031;-64
2022/04/20 04:56:09;;;;;;;;;;;3.70;99.90;;;;;;4956460;28;20230;-63
2022/04/20 04:58:42;;;;;;;;;;;3.70;99.90;;;;;;4923500;28;20019;-64
2022/04/20 05:01:09;;;;;;;;;;;3.80;99.90;;;;;;4927013;28;20040;-64
2022/04/20 05:03:38;;;;;;;;;;;3.80;99.90;;;;;;4927887;28;19922;-64
2022/04/20 05:06:06;;;;;;;;;;;3.80;99.90;;;;;;4910111;28;20040;-64
2022/04/20 05:09:09;;;;;;;;;;;3.80;99.90;;;;;;4942547;28;20827;-62
2022/04/20 05:11:39;;;;;;;;;;;3.90;99.90;;;;;;4930138;28;19932;-63
2022/04/20 05:14:09;;;;;;;;;;;3.90;99.90;;;;;;4925861;28;20387;-63
2022/04/20 05:16:39;;;;;;;;;;;4.00;99.90;;;;;;4926265;28;20163;-63
2022/04/20 05:19:09;;;;;;;;;;;4.00;99.90;;;;;;4926268;28;19926;-63
2022/04/20 05:21:36;;;;;;;;;;;4.10;99.90;;;;;;4912488;28;19921;-63
2022/04/20 05:24:04;;;;;;;;;;;4.10;99.90;;;;;;4924090;28;19922;-53
2022/04/20 05:26:34;;;;;;;;;;;4.20;99.90;;;;;;4929915;28;20009;-52
2022/04/20 05:29:01;;;;;;;;;;;4.20;99.90;;;;;;4927835;28;19922;-52
2022/04/20 05:31:33;;;;;;;;;;;4.30;99.90;;;;;;4925361;28;19991;-58
2022/04/20 05:34:03;;;;;;;;;;;4.30;99.90;;;;;;4928039;28;20282;-58
2022/04/20 05:41:39;;;;;;;;;;;4.40;99.90;;;;;;4925135;28;19921;-58
2022/04/20 05:42:05;;;;;;;;;;;4.50;99.90;;;;;;4925861;28;19922;-58
2022/04/20 05:44:32;;;;;;;;;;;4.50;99.90;;;;;;4909327;28;19926;-59
2022/04/20 05:46:59;;;;;;;;;;;4.60;99.90;;;;;;4924785;28;20159;-58
2022/04/20 05:49:26;;;;;;;;;;;4.70;99.90;;;;;;4933354;28;19940;-58
2022/04/20 05:51:53;;;;;;;;;;;4.70;99.90;;;;;;4927436;28;19928;-58
2022/04/20 05:54:21;;;;;;;;;;;4.80;99.90;;;;;;4938795;28;19922;-57
2022/04/20 05:56:48;;;;;;;;;;;4.90;99.90;;;;;;4948808;28;19929;-58
2022/04/20 05:59:15;;;;;;;;;;;5.00;99.90;;;;;;4945395;28;20347;-59
2022/04/20 06:01:43;;;;;;;;;;;5.10;99.90;;;;;;4980074;28;19925;-58
2022/04/20 06:04:17;;;;;;;;;;;5.20;99.90;;;;;;4947219;28;19932;-59
2022/04/20 06:07:02;;;;;;;;;;;5.30;99.90;;;;;;4943399;28;19995;-58
2022/04/20 06:09:36;;;;;;;;;;;5.40;99.90;;;;;;4948717;28;19928;-58
2022/04/20 06:12:12;;;;;;;;;;;5.50;99.90;;;;;;4948967;28;20161;-58
2022/04/20 06:14:55;;;;;;;;;;;5.60;99.90;;;;;;4945724;28;20298;-58
2022/04/20 06:17:48;;;;;;;;;;;5.70;99.90;;;;;;4927015;28;19952;-58
2022/04/20 06:20:16;;;;;;;;;;;5.80;99.90;;;;;;4911605;28;20469;-59
2022/04/20 06:22:53;;;;;;;;;;;5.80;99.90;;;;;;4926648;28;19926;-58
2022/04/20 06:25:30;;;;;;;;;;;5.90;99.90;;;;;;4926786;28;20030;-59
2022/04/20 06:28:12;;;;;;;;;;;6.00;99.90;;;;;;4952090;28;19922;-57
2022/04/20 06:30:47;;;;;;;;;;;6.00;99.90;;;;;;4946241;28;20668;-57
2022/04/20 06:33:33;;;;;;;;;;;6.10;99.90;;;;;;4951010;28;20160;-54
2022/04/20 06:36:17;;;;;;;;;;;6.20;99.90;;;;;;4950317;28;20102;-57
2022/04/20 06:39:01;;;;;;;;;;;6.20;99.90;;;;;;4947348;28;20715;-58
2022/04/20 06:41:40;;;;;;;;;;;6.30;99.90;;;;;;4928504;28;20131;-58
2022/04/20 06:44:26;;;;;;;;;;;6.30;99.90;;;;;;4931981;28;20090;-59
2022/04/20 06:47:18;;;;;;;;;;;6.50;99.90;;;;;;4925078;28;19922;-58
2022/04/20 06:50:07;;;;;;;;;;;6.60;99.90;;;;;;4933827;28;20048;-56
2022/04/20 06:58:32;;;;;;;;;;;6.90;99.90;;;;;;4928506;28;19987;-57
2022/04/20 07:01:05;;;;;;;;;;;7.10;99.90;;;;;;4946014;28;20044;-56
2022/04/20 07:03:52;;;;;;;;;;;7.20;99.90;;;;;;4936034;28;20012;-56
2022/04/20 07:06:27;;;;;;;;;;;7.30;99.90;;;;;;4963395;28;19929;-57
2022/04/20 07:09:07;;;;;;;;;;;7.50;99.90;;;;;;4943607;28;19987;-55
2022/04/20 07:11:42;;;;;;;;;;;7.60;99.90;;;;;;4944736;28;19921;-55
2022/04/20 07:14:10;;;;;;;;;;;7.70;99.90;;;;;;4914902;28;20699;-56
2022/04/20 07:16:36;;;;;;;;;;;7.70;99.90;;;;;;4928421;28;19933;-56
2022/04/20 07:19:17;;;;;;;;;;;7.80;99.90;;;;;;4937452;28;19960;-58
2022/04/20 07:22:03;;;;;;;;;;;7.90;99.90;;;;;;4929188;28;20753;-57
2022/04/20 07:24:47;;;;;;;;;;;7.90;99.90;;;;;;4928946;28;19926;-57
2022/04/20 07:27:32;;;;;;;;;;;8.00;99.90;;;;;;4928553;28;20109;-58
2022/04/20 07:30:18;;;;;;;;;;;8.20;99.90;;;;;;4933329;28;20737;-57
2022/04/20 07:33:05;;;;;;;;;;;8.40;99.90;;;;;;4911780;28;19933;-56
2022/04/20 07:35:58;;;;;;;;;;;8.60;99.90;;;;;;4917007;28;19926;-56
2022/04/20 07:38:45;;;;;;;;;;;8.70;99.90;;;;;;4926518;28;20731;-56
2022/04/20 07:41:30;;;;;;;;;;;8.80;99.90;;;;;;4930997;28;20003;-56
2022/04/20 07:44:18;;;;;;;;;;;8.90;99.90;;;;;;4927300;28;20032;-56
2022/04/20 07:47:07;;;;;;;;;;;9.20;99.90;;;;;;4926665;28;20413;-57
2022/04/20 07:52:47;;;;;;;;;;;10.70;99.90;;;;;;4940917;28;19922;-58
2022/04/20 07:55:33;;;;;;;;;;;11.40;99.90;;;;;;4914648;28;19948;-58
2022/04/20 07:58:06;;;;;;;;;;;11.90;98.10;;;;;;4927678;28;19922;-57
2022/04/20 08:00:33;;;;;;;;;;;12.30;95.70;;;;;;4927309;28;20280;-59
2022/04/20 08:03:19;;;;;;;;;;;12.60;93.50;;;;;;4930755;28;20445;-57
2022/04/20 08:05:52;;;;;;;;;;;12.90;91.10;;;;;;4927957;28;19922;-58
2022/04/20 08:08:21;;;;;;;;;;;13.10;87.70;;;;;;4928545;28;20467;-57
2022/04/20 08:10:48;;;;;;;;;;;13.30;86.60;;;;;;4929060;28;19922;-58
2022/04/20 08:16:07;;;;;;;;;;;13.60;84.80;;;;;;4928708;28;19932;-60
2022/04/20 08:18:47;;;;;;;;;;;13.80;84.80;;;;;;4926231;28;19937;-57
2022/04/20 08:21:34;;;;;;;;;;;14.00;84.40;;;;;;4912023;28;19929;-57
2022/04/20 08:24:01;;;;;;;;;;;14.20;81.20;;;;;;4911608;28;19933;-56
2022/04/20 08:26:31;;;;;;;;;;;14.40;79.70;;;;;;4927950;28;19928;-59
2022/04/20 08:28:57;;;;;;;;;;;14.60;76.00;;;;;;4913274;28;20001;-61
2022/04/20 08:31:24;;;;;;;;;;;14.60;76.00;;;;;;4912801;28;19932;-59
2022/04/20 08:33:51;;;;;;;;;;;14.70;76.90;;;;;;4908106;28;19932;-56
2022/04/20 08:36:18;;;;;;;;;;;14.70;73.60;;;;;;4911102;28;20055;-58
2022/04/20 08:38:45;;;;;;;;;;;14.90;73.20;;;;;;4911109;28;19922;-65
2022/04/20 08:41:14;;;;;;;;;;;15.10;71.30;;;;;;4922891;28;20183;-59
2022/04/20 08:43:43;;;;;;;;;;;15.10;70.90;;;;;;4928876;28;20098;-59
2022/04/20 08:46:10;;;;;;;;;;;15.20;69.00;;;;;;4930418;28;20269;-58
2022/04/20 08:48:37;;;;;;;;;;;15.20;70.00;;;;;;4926091;28;19926;-59
2022/04/20 08:51:05;;;;;;;;;;;15.30;68.90;;;;;;4909020;28;19926;-59
2022/04/20 08:53:32;;;;;;;;;;;15.30;70.10;;;;;;4909814;28;20331;-59
2022/04/20 08:58:46;;;;;;;;;;;15.50;66.20;;;;;;4915469;28;20301;-59
2022/04/20 09:01:14;;;;;;;;;;;15.60;66.40;;;;;;4926957;28;19932;-59
2022/04/20 09:03:42;;;;;;;;;;;15.70;66.70;;;;;;4930440;28;19929;-59
2022/04/20 09:06:10;;;;;;;;;;;15.80;65.50;;;;;;4945141;28;19921;-60
2022/04/20 09:08:38;;;;;;;;;;;15.90;64.80;;;;;;4948598;28;19922;-59
2022/04/20 09:11:05;;;;;;;;;;;15.80;64.50;;;;;;4924821;28;19926;-60
2022/04/20 09:13:39;;;;;;;;;;;15.50;65.30;;;;;;4930154;28;19922;-56
2022/04/20 09:16:06;;;;;;;;;;;15.50;65.20;;;;;;4942702;28;20664;-57
2022/04/20 09:18:33;;;;;;;;;;;15.70;64.20;;;;;;4926519;28;20015;-62
2022/04/20 09:21:11;;;;;;;;;;;15.80;63.90;;;;;;4926667;28;19922;-61
2022/04/20 09:23:39;;;;;;;;;;;15.80;66.50;;;;;;4928750;28;19944;-61
2022/04/20 09:26:06;;;;;;;;;;;16.00;65.90;;;;;;4929416;28;19921;-60
2022/04/20 09:28:34;;;;;;;;;;;16.10;65.50;;;;;;4928096;28;20325;-61
2022/04/20 09:31:07;;;;;;;;;;;16.10;63.40;;;;;;4927806;28;20415;-61
2022/04/20 09:33:49;;;;;;;;;;;15.90;63.30;;;;;;4926662;28;20308;-61
2022/04/20 09:36:36;;;;;;;;;;;15.90;61.10;;;;;;4946761;28;19929;-61
2022/04/20 09:39:03;;;;;;;;;;;15.70;62.00;;;;;;4960736;28;19990;-60
2022/04/20 09:41:33;;;;;;;;;;;15.70;64.40;;;;;;4947924;28;19922;-62
2022/04/20 09:44:08;;;;;;;;;;;15.60;63.60;;;;;;4929688;28;20388;-61
2022/04/20 09:49:56;;;;;;;;;;;15.50;62.10;;;;;;4915602;28;19944;-61
2022/04/20 09:52:42;;;;;;;;;;;15.60;60.90;;;;;;4914245;28;19933;-61
2022/04/20 09:55:11;;;;;;;;;;;15.70;61.40;;;;;;4930553;28;19922;-60
2022/04/20 09:57:39;;;;;;;;;;;15.70;62.60;;;;;;4913793;28;19922;-63
2022/04/20 10:00:10;;;;;;;;;;;16.00;63.40;;;;;;4923778;28;20284;-59
2022/04/20 10:02:48;;;;;;;;;;;16.00;59.60;;;;;;4927540;28;20075;-62
2022/04/20 10:05:16;;;;;;;;;;;16.00;64.50;;;;;;4932876;28;20154;-60
2022/04/20 10:07:51;;;;;;;;;;;16.20;61.70;;;;;;4928405;28;20025;-61
2022/04/20 10:10:18;;;;;;;;;;;16.20;58.70;;;;;;4932103;28;19921;-62
2022/04/20 10:12:46;;;;;;;;;;;16.20;61.50;;;;;;4948497;28;20090;-62
2022/04/20 10:18:00;;;;;;;;;;;16.20;60.10;;;;;;4928790;28;20079;-58
2022/04/20 10:20:27;;;;;;;;;;;16.30;61.20;;;;;;4944845;28;20253;-58
2022/04/20 10:22:54;;;;;;;;;;;16.40;59.40;;;;;;4949981;28;19937;-59
2022/04/20 10:25:21;;;;;;;;;;;16.50;58.40;;;;;;4949005;28;19928;-59
2022/04/20 10:27:58;;;;;;;;;;;16.40;57.40;;;;;;4949420;28;20569;-60
2022/04/20 10:30:30;;;;;;;;;;;16.40;59.80;;;;;;4942937;28;19980;-59
2022/04/20 10:33:02;;;;;;;;;;;16.50;60.10;;;;;;4947332;28;20516;-59
2022/04/20 10:35:29;;;;;;;;;;;16.70;58.10;;;;;;4947857;28;20355;-58
2022/04/20 10:38:19;;;;;;;;;;;16.80;60.10;;;;;;4946013;28;19980;-60
2022/04/20 10:41:02;;;;;;;;;;;17.00;60.70;;;;;;4935711;28;19932;-58
2022/04/20 10:43:30;;;;;;;;;;;17.20;59.00;;;;;;4930036;28;19933;-57
2022/04/20 10:46:05;;;;;;;;;;;17.40;58.40;;;;;;4933580;28;20028;-58
2022/04/20 10:48:47;;;;;;;;;;;17.50;56.90;;;;;;4927725;28;19929;-58
2022/04/20 10:51:16;;;;;;;;;;;17.60;57.10;;;;;;4933966;28;20089;-58
2022/04/20 10:53:45;;;;;;;;;;;17.60;56.10;;;;;;4930281;28;19922;-57
2022/04/20 10:56:13;;;;;;;;;;;17.60;54.60;;;;;;4931394;28;19932;-58
2022/04/20 10:59:07;;;;;;;;;;;17.40;53.90;;;;;;4929704;28;20019;-59
2022/04/20 11:01:53;;;;;;;;;;;17.30;56.80;;;;;;4925285;28;20254;-58
2022/04/20 11:04:32;;;;;;;;;;;17.30;55.70;;;;;;4933521;28;19922;-58
2022/04/20 11:06:59;;;;;;;;;;;17.40;55.90;;;;;;4931929;28;20230;-58
2022/04/20 11:09:52;;;;;;;;;;;17.50;56.00;;;;;;4931496;28;20490;-58
2022/04/20 11:18:39;;;;;;;;;;;17.40;53.80;;;;;;4911129;28;20436;-58
2022/04/20 11:21:26;;;;;;;;;;;17.50;53.50;;;;;;4912989;28;20081;-58
2022/04/20 11:23:58;;;;;;;;;;;17.60;55.00;;;;;;4912860;28;19929;-58
2022/04/20 11:26:32;;;;;;;;;;;17.80;55.50;;;;;;4912672;28;20011;-59
2022/04/20 11:29:09;;;;;;;;;;;17.90;54.90;;;;;;4911160;28;20304;-59
2022/04/20 11:31:37;;;;;;;;;;;18.00;51.70;;;;;;4932679;28;19921;-59
2022/04/20 11:34:05;;;;;;;;;;;18.10;51.80;;;;;;4912505;28;19922;-59
2022/04/20 11:36:32;;;;;;;;;;;17.90;51.20;;;;;;4929738;28;19933;-59
2022/04/20 11:39:00;;;;;;;;;;;17.90;51.60;;;;;;4928688;28;19932;-60
2022/04/20 11:41:27;;;;;;;;;;;17.70;52.00;;;;;;4927312;28;19945;-59
2022/04/20 11:43:54;;;;;;;;;;;17.70;51.90;;;;;;4929027;28;19932;-59
2022/04/20 11:46:21;;;;;;;;;;;17.80;52.80;;;;;;4930182;28;19937;-59
2022/04/20 11:48:58;;;;;;;;;;;17.80;51.70;;;;;;4935450;28;20087;-59
2022/04/20 11:51:37;;;;;;;;;;;17.90;52.20;;;;;;4941739;28;20040;-58
2022/04/20 11:54:04;;;;;;;;;;;17.80;51.00;;;;;;4943249;28;19977;-59
2022/04/20 11:56:40;;;;;;;;;;;17.70;51.60;;;;;;4941453;28;19925;-58
2022/04/20 11:59:08;;;;;;;;;;;17.70;51.80;;;;;;4943748;28;20012;-59
2022/04/20 12:01:36;;;;;;;;;;;17.70;51.40;;;;;;4943312;28;20179;-58
2022/04/20 12:04:10;;;;;;;;;;;17.80;53.20;;;;;;4942889;28;20032;-58
2022/04/20 12:06:43;;;;;;;;;;;17.90;50.60;;;;;;4943497;28;20658;-60
2022/04/20 12:09:09;;;;;;;;;;;18.10;51.20;;;;;;4943318;28;19984;-59
2022/04/20 12:11:36;;;;;;;;;;;18.20;49.40;;;;;;4945728;28;20687;-58
2022/04/20 12:14:03;;;;;;;;;;;18.30;50.40;;;;;;4940603;28;19925;-59
2022/04/20 12:16:33;;;;;;;;;;;18.40;50.50;;;;;;4941788;28;19922;-59
2022/04/20 12:19:01;;;;;;;;;;;18.50;51.60;;;;;;4946637;28;19927;-59
2022/04/20 12:21:35;;;;;;;;;;;18.40;49.60;;;;;;4943555;28;20527;-60
2022/04/20 12:24:03;;;;;;;;;;;18.50;49.30;;;;;;4942598;28;20435;-59
2022/04/20 12:26:30;;;;;;;;;;;18.30;50.30;;;;;;4942757;28;20016;-65
2022/04/20 12:29:03;;;;;;;;;;;18.30;50.00;;;;;;4941812;28;19929;-60
2022/04/20 12:31:30;;;;;;;;;;;18.30;50.10;;;;;;4925541;28;20505;-60
2022/04/20 12:34:04;;;;;;;;;;;18.50;49.50;;;;;;4928088;28;19926;-60
2022/04/20 12:36:48;;;;;;;;;;;18.70;50.10;;;;;;4943450;28;19961;-60
2022/04/20 12:39:34;;;;;;;;;;;18.80;48.70;;;;;;4935362;28;20467;-60
2022/04/20 12:42:06;;;;;;;;;;;18.80;48.80;;;;;;4931003;28;19967;-60
2022/04/20 12:44:39;;;;;;;;;;;18.80;48.20;;;;;;4927322;28;20689;-60
2022/04/20 12:47:06;;;;;;;;;;;19.00;47.40;;;;;;4928889;28;20383;-59
2022/04/20 12:49:33;;;;;;;;;;;19.20;47.00;;;;;;4924529;28;19930;-60
2022/04/20 12:52:08;;;;;;;;;;;19.30;45.50;;;;;;4941393;28;19928;-60
2022/04/20 12:54:36;;;;;;;;;;;19.20;46.90;;;;;;4907055;28;19973;-60
2022/04/20 13:03:02;;;;;;;;;;;19.20;46.20;;;;;;4920192;28;20688;-60
2022/04/20 13:05:33;;;;;;;;;;;19.20;46.70;;;;;;4929250;28;20774;-60
2022/04/20 13:08:00;;;;;;;;;;;19.20;45.50;;;;;;4928035;28;19922;-60
2022/04/20 13:10:29;;;;;;;;;;;19.20;46.60;;;;;;4930914;28;20234;-60
2022/04/20 13:12:56;;;;;;;;;;;19.20;45.00;;;;;;4943623;28;20509;-59
2022/04/20 13:15:29;;;;;;;;;;;19.20;47.70;;;;;;4959118;28;19945;-60
2022/04/20 13:17:59;;;;;;;;;;;19.20;46.00;;;;;;4928141;28;19932;-60
2022/04/20 13:20:28;;;;;;;;;;;19.00;45.80;;;;;;4929167;28;19925;-60
2022/04/20 13:22:55;;;;;;;;;;;18.90;45.40;;;;;;4932856;28;19925;-60
2022/04/20 13:28:08;;;;;;;;;;;19.00;46.10;;;;;;4943325;28;20391;-60
2022/04/20 13:30:36;;;;;;;;;;;19.10;45.40;;;;;;4941317;28;19922;-60
2022/04/20 13:33:03;;;;;;;;;;;19.10;45.30;;;;;;4942071;28;20942;-60
2022/04/20 13:35:30;;;;;;;;;;;19.10;44.10;;;;;;4943549;28;19926;-60
2022/04/20 13:37:57;;;;;;;;;;;19.10;44.80;;;;;;4941450;28;19992;-60
2022/04/20 13:40:24;;;;;;;;;;;19.00;46.30;;;;;;4940593;28;20285;-60
2022/04/20 13:42:51;;;;;;;;;;;19.10;45.70;;;;;;4941886;28;20044;-60
2022/04/20 13:45:21;;;;;;;;;;;19.20;44.40;;;;;;4941022;28;20106;-60
2022/04/20 13:47:49;;;;;;;;;;;19.20;45.30;;;;;;4941358;28;20470;-59
2022/04/20 13:50:16;;;;;;;;;;;19.30;45.80;;;;;;4943186;28;20506;-60
2022/04/20 13:52:43;;;;;;;;;;;19.30;44.80;;;;;;4943570;28;20435;-61
2022/04/20 13:55:09;;;;;;;;;;;19.30;44.80;;;;;;4942966;28;19925;-61
2022/04/20 13:57:37;;;;;;;;;;;19.30;44.80;;;;;;4941635;28;20039;-62
2022/04/20 14:00:05;;;;;;;;;;;19.30;44.00;;;;;;4940235;28;20254;-61
2022/04/20 14:02:37;;;;;;;;;;;19.50;42.80;;;;;;4941082;28;19926;-61
2022/04/20 14:05:05;;;;;;;;;;;19.60;45.20;;;;;;4939198;28;20228;-62
2022/04/20 14:07:32;;;;;;;;;;;19.60;43.00;;;;;;4955066;28;19957;-61
2022/04/20 14:09:59;;;;;;;;;;;19.40;44.40;;;;;;4941189;28;19921;-61
2022/04/20 14:12:26;;;;;;;;;;;19.50;44.20;;;;;;4940155;28;20160;-61
2022/04/20 14:14:53;;;;;;;;;;;19.40;42.80;;;;;;4942794;28;19922;-61
2022/04/20 14:17:20;;;;;;;;;;;19.50;43.70;;;;;;4941615;28;20404;-62
2022/04/20 14:19:47;;;;;;;;;;;19.40;43.10;;;;;;4942863;28;20202;-62
2022/04/20 14:22:14;;;;;;;;;;;19.40;43.90;;;;;;4944228;28;20027;-62
2022/04/20 14:24:41;;;;;;;;;;;19.40;44.10;;;;;;4946537;28;20320;-62
2022/04/20 14:32:39;;;;;;;;;;;19.20;43.30;;;;;;4945439;28;19921;-62
2022/04/20 14:35:07;;;;;;;;;;;19.10;42.40;;;;;;4945800;28;20150;-62
2022/04/20 14:37:34;;;;;;;;;;;19.00;42.40;;;;;;4945514;28;19922;-61
2022/04/20 14:40:02;;;;;;;;;;;19.10;43.60;;;;;;4944220;28;20439;-62
2022/04/20 14:42:29;;;;;;;;;;;19.10;42.90;;;;;;4946548;28;20462;-62
2022/04/20 14:45:03;;;;;;;;;;;19.10;42.80;;;;;;4943000;28;19952;-62
2022/04/20 14:47:30;;;;;;;;;;;19.00;43.30;;;;;;4943601;28;19922;-62
2022/04/20 14:49:57;;;;;;;;;;;19.00;44.00;;;;;;4945787;28;19929;-62
2022/04/20 14:52:24;;;;;;;;;;;18.90;44.00;;;;;;4945381;28;19925;-62
2022/04/20 14:54:51;;;;;;;;;;;19.00;43.50;;;;;;4942476;28;19921;-62
2022/04/20 14:57:38;;;;;;;;;;;18.90;42.90;;;;;;4945484;28;19929;-62
2022/04/20 15:00:06;;;;;;;;;;;18.80;42.90;;;;;;4945855;28;20388;-62
2022/04/20 15:02:35;;;;;;;;;;;18.70;43.60;;;;;;4944341;28;19932;-62
2022/04/20 15:05:02;;;;;;;;;;;18.60;43.90;;;;;;4942727;28;19922;-62
2022/04/20 15:07:29;;;;;;;;;;;18.50;42.90;;;;;;4942095;28;20095;-62
2022/04/20 15:09:56;;;;;;;;;;;18.40;43.80;;;;;;4944082;28;19979;-62
2022/04/20 15:12:24;;;;;;;;;;;18.30;44.10;;;;;;4945441;28;20065;-62
2022/04/20 15:14:51;;;;;;;;;;;18.30;44.40;;;;;;4932525;28;20250;-62
2022/04/20 15:17:19;;;;;;;;;;;18.20;43.90;;;;;;4933833;28;19921;-63
2022/04/20 15:19:45;;;;;;;;;;;18.00;44.00;;;;;;4931516;28;20123;-65
2022/04/20 15:22:12;;;;;;;;;;;17.90;44.90;;;;;;4932274;28;20389;-62
2022/04/20 15:24:41;;;;;;;;;;;17.70;44.80;;;;;;4930606;28;20299;-59
2022/04/20 15:27:08;;;;;;;;;;;17.50;45.10;;;;;;4947167;28;20458;-59
2022/04/20 15:29:36;;;;;;;;;;;17.50;45.20;;;;;;4965495;28;20426;-58
2022/04/20 15:32:03;;;;;;;;;;;17.50;44.80;;;;;;4949631;28;20275;-57
2022/04/20 15:34:30;;;;;;;;;;;17.60;45.30;;;;;;4943080;28;20845;-57
2022/04/20 15:37:05;;;;;;;;;;;17.70;45.30;;;;;;4943760;28;19925;-58
2022/04/20 15:39:33;;;;;;;;;;;17.70;45.50;;;;;;4946397;28;20602;-63